sensor_id;sensor_type;location;lat;lon;timestamp;temperature;humidity
45096;DHT22;30858;51.108;8.068;2022-08-03T00:01:16;17.40;99.90
45096;DHT22;30858;51.108;8.068;2022-08-03T00:03:42;17.40;99.90
45096;DHT22;30858;51.108;8.068;2022-08-03T00:06:08;17.40;99.90
45096;DHT22;30858;51.108;8.068;2022-08-03T00:08:34;17.30;99.90
45096;DHT22;30858;51.108;8.068;2022-08-03T00:11:00;17.20;99.90
45096;DHT22;30858;51.108;8.068;2022-08-03T00:13:25;17.20;99.90
45096;DHT22;30858;51.108;8.068;2022-08-03T00:15:51;17.20;99.90
45096;DHT22;30858;51.108;8.068;2022-08-03T00:18:17;17.20;99.90
45096;DHT22;30858;51.108;8.068;2022-08-03T00:20:43;17.20;99.90
45096;DHT22;30858;51.108;8.068;2022-08-03T00:23:09;17.10;99.90
45096;DHT22;30858;51.108;8.068;2022-08-03T00:25:35;17.10;99.90
45096;DHT22;30858;51.108;8.068;2022-08-03T00:28:02;17.10;99.90
45096;DHT22;30858;51.108;8.068;2022-08-03T00:30:28;17.10;99.90
45096;DHT22;30858;51.108;8.068;2022-08-03T00:32:54;17.00;99.90
45096;DHT22;30858;51.108;8.068;2022-08-03T00:35:19;17.00;99.90
45096;DHT22;30858;51.108;8.068;2022-08-03T00:37:45;16.90;99.90
45096;DHT22;30858;51.108;8.068;2022-08-03T00:40:15;16.90;99.90
45096;DHT22;30858;51.108;8.068;2022-08-03T00:45:20;16.70;99.90
45096;DHT22;30858;51.108;8.068;2022-08-03T00:47:46;16.50;99.90
45096;DHT22;30858;51.108;8.068;2022-08-03T00:50:12;16.60;99.90
45096;DHT22;30858;51.108;8.068;2022-08-03T00:55:04;16.60;99.90
45096;DHT22;30858;51.108;8.068;2022-08-03T00:57:31;16.70;99.90
45096;DHT22;30858;51.108;8.068;2022-08-03T00:59:58;16.50;99.90
45096;DHT22;30858;51.108;8.068;2022-08-03T01:02:25;16.40;99.90
45096;DHT22;30858;51.108;8.068;2022-08-03T01:04:51;16.30;99.90
45096;DHT22;30858;51.108;8.068;2022-08-03T01:12:58;16.00;99.90
45096;DHT22;30858;51.108;8.068;2022-08-03T01:15:28;15.90;99.90
45096;DHT22;30858;51.108;8.068;2022-08-03T01:18:19;15.80;99.90
45096;DHT22;30858;51.108;8.068;2022-08-03T01:20:48;15.70;99.90
45096;DHT22;30858;51.108;8.068;2022-08-03T01:35:14;15.90;99.90
45096;DHT22;30858;51.108;8.068;2022-08-03T01:37:44;15.80;99.90
45096;DHT22;30858;51.108;8.068;2022-08-03T01:40:13;15.90;99.90
45096;DHT22;30858;51.108;8.068;2022-08-03T01:42:40;16.00;99.90
45096;DHT22;30858;51.108;8.068;2022-08-03T01:45:08;16.10;99.90
45096;DHT22;30858;51.108;8.068;2022-08-03T01:47:35;16.10;99.90
45096;DHT22;30858;51.108;8.068;2022-08-03T01:50:02;16.00;99.90
45096;DHT22;30858;51.108;8.068;2022-08-03T01:52:29;15.90;99.90
45096;DHT22;30858;51.108;8.068;2022-08-03T01:54:57;15.90;99.90
45096;DHT22;30858;51.108;8.068;2022-08-03T01:57:24;15.80;99.90
45096;DHT22;30858;51.108;8.068;2022-08-03T01:59:55;15.90;99.90
45096;DHT22;30858;51.108;8.068;2022-08-03T02:02:21;16.00;99.90
45096;DHT22;30858;51.108;8.068;2022-08-03T02:04:49;16.00;99.90
45096;DHT22;30858;51.108;8.068;2022-08-03T02:07:16;16.00;99.90
45096;DHT22;30858;51.108;8.068;2022-08-03T02:09:44;15.90;99.90
45096;DHT22;30858;51.108;8.068;2022-08-03T02:12:13;15.90;99.90
45096;DHT22;30858;51.108;8.068;2022-08-03T02:14:40;16.00;99.90
45096;DHT22;30858;51.108;8.068;2022-08-03T02:17:08;15.90;99.90
45096;DHT22;30858;51.108;8.068;2022-08-03T02:19:34;15.80;99.90
45096;DHT22;30858;51.108;8.068;2022-08-03T02:22:01;15.80;99.90
45096;DHT22;30858;51.108;8.068;2022-08-03T02:24:28;15.80;99.90
45096;DHT22;30858;51.108;8.068;2022-08-03T02:26:55;15.80;99.90
45096;DHT22;30858;51.108;8.068;2022-08-03T02:29:24;15.80;99.90
45096;DHT22;30858;51.108;8.068;2022-08-03T02:31:51;15.70;99.90
45096;DHT22;30858;51.108;8.068;2022-08-03T02:34:22;15.60;99.90
45096;DHT22;30858;51.108;8.068;2022-08-03T02:36:52;15.50;99.90
45096;DHT22;30858;51.108;8.068;2022-08-03T02:39:19;15.50;99.90
45096;DHT22;30858;51.108;8.068;2022-08-03T02:41:50;15.40;99.90
45096;DHT22;30858;51.108;8.068;2022-08-03T02:44:19;15.30;99.90
45096;DHT22;30858;51.108;8.068;2022-08-03T02:46:47;15.30;99.90
45096;DHT22;30858;51.108;8.068;2022-08-03T02:49:15;15.30;99.90
45096;DHT22;30858;51.108;8.068;2022-08-03T02:51:44;15.30;99.90
45096;DHT22;30858;51.108;8.068;2022-08-03T02:54:10;15.30;99.90
45096;DHT22;30858;51.108;8.068;2022-08-03T02:56:36;15.20;99.90
45096;DHT22;30858;51.108;8.068;2022-08-03T02:59:03;15.20;99.90
45096;DHT22;30858;51.108;8.068;2022-08-03T03:01:31;14.90;99.90
45096;DHT22;30858;51.108;8.068;2022-08-03T03:03:57;14.80;99.90
45096;DHT22;30858;51.108;8.068;2022-08-03T03:06:24;14.80;99.90
45096;DHT22;30858;51.108;8.068;2022-08-03T03:08:51;14.90;99.90
45096;DHT22;30858;51.108;8.068;2022-08-03T03:11:20;14.90;99.90
45096;DHT22;30858;51.108;8.068;2022-08-03T03:13:46;14.90;99.90
45096;DHT22;30858;51.108;8.068;2022-08-03T03:16:13;14.90;99.90
45096;DHT22;30858;51.108;8.068;2022-08-03T03:18:40;15.00;99.90
45096;DHT22;30858;51.108;8.068;2022-08-03T03:21:08;15.00;99.90
45096;DHT22;30858;51.108;8.068;2022-08-03T03:23:36;15.00;99.90
45096;DHT22;30858;51.108;8.068;2022-08-03T03:26:02;14.90;99.90
45096;DHT22;30858;51.108;8.068;2022-08-03T03:28:29;14.80;99.90
45096;DHT22;30858;51.108;8.068;2022-08-03T03:30:56;14.80;99.90
45096;DHT22;30858;51.108;8.068;2022-08-03T03:33:22;14.70;99.90
45096;DHT22;30858;51.108;8.068;2022-08-03T03:35:48;14.60;99.90
45096;DHT22;30858;51.108;8.068;2022-08-03T03:38:14;14.60;99.90
45096;DHT22;30858;51.108;8.068;2022-08-03T03:40:40;14.50;99.90
45096;DHT22;30858;51.108;8.068;2022-08-03T03:43:10;14.50;99.90
45096;DHT22;30858;51.108;8.068;2022-08-03T03:45:36;14.50;99.90
45096;DHT22;30858;51.108;8.068;2022-08-03T03:48:06;14.40;99.90
45096;DHT22;30858;51.108;8.068;2022-08-03T03:50:33;14.40;99.90
45096;DHT22;30858;51.108;8.068;2022-08-03T03:53:00;14.40;99.90
45096;DHT22;30858;51.108;8.068;2022-08-03T03:55:26;14.30;99.90
45096;DHT22;30858;51.108;8.068;2022-08-03T03:57:51;14.30;99.90
45096;DHT22;30858;51.108;8.068;2022-08-03T04:00:17;14.30;99.90
45096;DHT22;30858;51.108;8.068;2022-08-03T04:02:44;14.30;99.90
45096;DHT22;30858;51.108;8.068;2022-08-03T04:05:10;14.30;99.90
45096;DHT22;30858;51.108;8.068;2022-08-03T04:08:02;14.30;99.90
45096;DHT22;30858;51.108;8.068;2022-08-03T04:11:08;14.30;99.90
45096;DHT22;30858;51.108;8.068;2022-08-03T04:13:46;14.30;99.90
45096;DHT22;30858;51.108;8.068;2022-08-03T04:16:14;14.40;99.90
45096;DHT22;30858;51.108;8.068;2022-08-03T04:18:43;14.40;99.90
45096;DHT22;30858;51.108;8.068;2022-08-03T04:21:12;14.30;99.90
45096;DHT22;30858;51.108;8.068;2022-08-03T04:23:41;14.30;99.90
45096;DHT22;30858;51.108;8.068;2022-08-03T04:26:11;14.30;99.90
45096;DHT22;30858;51.108;8.068;2022-08-03T04:28:38;14.20;99.90
45096;DHT22;30858;51.108;8.068;2022-08-03T04:31:05;14.20;99.90
45096;DHT22;30858;51.108;8.068;2022-08-03T04:33:33;14.30;99.90
45096;DHT22;30858;51.108;8.068;2022-08-03T04:36:01;14.30;99.90
45096;DHT22;30858;51.108;8.068;2022-08-03T04:38:29;14.40;99.90
45096;DHT22;30858;51.108;8.068;2022-08-03T04:40:55;14.40;99.90
45096;DHT22;30858;51.108;8.068;2022-08-03T04:43:21;14.40;99.90
45096;DHT22;30858;51.108;8.068;2022-08-03T04:45:49;14.40;99.90
45096;DHT22;30858;51.108;8.068;2022-08-03T04:48:15;14.40;99.90
45096;DHT22;30858;51.108;8.068;2022-08-03T04:50:41;14.50;99.90
45096;DHT22;30858;51.108;8.068;2022-08-03T04:53:07;14.60;99.90
45096;DHT22;30858;51.108;8.068;2022-08-03T04:55:34;14.70;99.90
45096;DHT22;30858;51.108;8.068;2022-08-03T04:58:00;14.80;99.90
45096;DHT22;30858;51.108;8.068;2022-08-03T05:00:27;14.80;99.90
45096;DHT22;30858;51.108;8.068;2022-08-03T05:02:52;14.80;99.90
45096;DHT22;30858;51.108;8.068;2022-08-03T05:05:19;14.90;99.90
45096;DHT22;30858;51.108;8.068;2022-08-03T05:07:44;14.80;99.90
45096;DHT22;30858;51.108;8.068;2022-08-03T05:10:11;14.80;99.90
45096;DHT22;30858;51.108;8.068;2022-08-03T05:12:38;14.90;99.90
45096;DHT22;30858;51.108;8.068;2022-08-03T05:15:04;14.90;99.90
45096;DHT22;30858;51.108;8.068;2022-08-03T05:17:30;14.80;99.90
45096;DHT22;30858;51.108;8.068;2022-08-03T05:19:55;14.80;99.90
45096;DHT22;30858;51.108;8.068;2022-08-03T05:22:21;14.80;99.90
45096;DHT22;30858;51.108;8.068;2022-08-03T05:24:47;14.80;99.90
45096;DHT22;30858;51.108;8.068;2022-08-03T05:27:13;14.80;99.90
45096;DHT22;30858;51.108;8.068;2022-08-03T05:29:47;14.90;99.90
45096;DHT22;30858;51.108;8.068;2022-08-03T05:32:14;15.10;99.90
45096;DHT22;30858;51.108;8.068;2022-08-03T05:34:40;15.30;99.90
45096;DHT22;30858;51.108;8.068;2022-08-03T05:37:06;15.50;99.90
45096;DHT22;30858;51.108;8.068;2022-08-03T05:39:32;15.70;99.90
45096;DHT22;30858;51.108;8.068;2022-08-03T05:41:58;15.80;99.90
45096;DHT22;30858;51.108;8.068;2022-08-03T05:44:23;16.00;99.90
45096;DHT22;30858;51.108;8.068;2022-08-03T05:46:50;16.20;99.90
45096;DHT22;30858;51.108;8.068;2022-08-03T05:49:16;16.50;99.90
45096;DHT22;30858;51.108;8.068;2022-08-03T05:51:41;16.60;99.90
45096;DHT22;30858;51.108;8.068;2022-08-03T05:54:07;16.70;99.90
45096;DHT22;30858;51.108;8.068;2022-08-03T05:56:32;16.70;99.90
45096;DHT22;30858;51.108;8.068;2022-08-03T05:58:58;16.70;99.90
45096;DHT22;30858;51.108;8.068;2022-08-03T06:01:23;16.80;99.90
45096;DHT22;30858;51.108;8.068;2022-08-03T06:03:49;17.00;99.90
45096;DHT22;30858;51.108;8.068;2022-08-03T06:06:16;17.20;99.90
45096;DHT22;30858;51.108;8.068;2022-08-03T06:08:43;17.40;99.90
45096;DHT22;30858;51.108;8.068;2022-08-03T06:11:09;17.50;99.90
45096;DHT22;30858;51.108;8.068;2022-08-03T06:13:34;17.70;99.90
45096;DHT22;30858;51.108;8.068;2022-08-03T06:16:00;17.80;99.90
45096;DHT22;30858;51.108;8.068;2022-08-03T06:18:26;18.00;99.90
45096;DHT22;30858;51.108;8.068;2022-08-03T06:20:52;18.30;99.90
45096;DHT22;30858;51.108;8.068;2022-08-03T06:23:18;18.50;99.90
45096;DHT22;30858;51.108;8.068;2022-08-03T06:25:43;18.70;99.90
45096;DHT22;30858;51.108;8.068;2022-08-03T06:28:09;18.90;99.90
45096;DHT22;30858;51.108;8.068;2022-08-03T06:30:35;19.10;99.90
45096;DHT22;30858;51.108;8.068;2022-08-03T06:33:01;19.20;99.90
45096;DHT22;30858;51.108;8.068;2022-08-03T06:35:26;19.50;99.90
45096;DHT22;30858;51.108;8.068;2022-08-03T06:37:53;19.60;99.90
45096;DHT22;30858;51.108;8.068;2022-08-03T06:40:21;19.90;99.90
45096;DHT22;30858;51.108;8.068;2022-08-03T06:42:56;20.10;99.90
45096;DHT22;30858;51.108;8.068;2022-08-03T06:45:22;20.40;99.90
45096;DHT22;30858;51.108;8.068;2022-08-03T06:48:08;20.60;99.90
45096;DHT22;30858;51.108;8.068;2022-08-03T06:50:35;20.80;99.90
45096;DHT22;30858;51.108;8.068;2022-08-03T06:53:02;20.90;99.90
45096;DHT22;30858;51.108;8.068;2022-08-03T06:55:28;21.00;99.90
45096;DHT22;30858;51.108;8.068;2022-08-03T06:57:54;21.20;99.90
45096;DHT22;30858;51.108;8.068;2022-08-03T07:00:20;21.50;99.90
45096;DHT22;30858;51.108;8.068;2022-08-03T07:02:46;21.70;99.90
45096;DHT22;30858;51.108;8.068;2022-08-03T07:05:12;21.90;99.90
45096;DHT22;30858;51.108;8.068;2022-08-03T07:07:38;22.00;99.90
45096;DHT22;30858;51.108;8.068;2022-08-03T07:10:05;22.30;99.90
45096;DHT22;30858;51.108;8.068;2022-08-03T07:12:31;22.70;99.90
45096;DHT22;30858;51.108;8.068;2022-08-03T07:14:58;22.80;99.90
45096;DHT22;30858;51.108;8.068;2022-08-03T07:17:24;23.00;99.90
45096;DHT22;30858;51.108;8.068;2022-08-03T07:19:49;23.00;99.90
45096;DHT22;30858;51.108;8.068;2022-08-03T07:22:15;23.10;99.90
45096;DHT22;30858;51.108;8.068;2022-08-03T07:24:41;23.30;99.90
45096;DHT22;30858;51.108;8.068;2022-08-03T07:27:07;23.70;99.90
45096;DHT22;30858;51.108;8.068;2022-08-03T07:29:33;23.80;99.90
45096;DHT22;30858;51.108;8.068;2022-08-03T07:31:59;24.20;99.90
45096;DHT22;30858;51.108;8.068;2022-08-03T07:34:25;24.40;99.90
45096;DHT22;30858;51.108;8.068;2022-08-03T07:36:51;24.70;99.90
45096;DHT22;30858;51.108;8.068;2022-08-03T07:39:16;24.80;99.90
45096;DHT22;30858;51.108;8.068;2022-08-03T07:41:42;24.80;99.90
45096;DHT22;30858;51.108;8.068;2022-08-03T07:44:07;25.20;99.90
45096;DHT22;30858;51.108;8.068;2022-08-03T07:46:33;25.50;99.90
45096;DHT22;30858;51.108;8.068;2022-08-03T07:48:58;25.50;99.90
45096;DHT22;30858;51.108;8.068;2022-08-03T07:51:24;25.60;99.90
45096;DHT22;30858;51.108;8.068;2022-08-03T07:53:49;25.80;99.90
45096;DHT22;30858;51.108;8.068;2022-08-03T07:56:15;26.00;99.90
45096;DHT22;30858;51.108;8.068;2022-08-03T07:58:41;26.00;99.90
45096;DHT22;30858;51.108;8.068;2022-08-03T08:01:07;26.10;99.90
45096;DHT22;30858;51.108;8.068;2022-08-03T08:03:32;26.20;99.90
45096;DHT22;30858;51.108;8.068;2022-08-03T08:05:58;26.70;99.90
45096;DHT22;30858;51.108;8.068;2022-08-03T08:08:24;27.10;99.90
45096;DHT22;30858;51.108;8.068;2022-08-03T08:10:49;27.40;99.90
45096;DHT22;30858;51.108;8.068;2022-08-03T08:13:15;27.70;99.90
45096;DHT22;30858;51.108;8.068;2022-08-03T08:15:40;27.70;99.90
45096;DHT22;30858;51.108;8.068;2022-08-03T08:18:06;27.70;99.90
45096;DHT22;30858;51.108;8.068;2022-08-03T08:20:34;27.60;99.90
45096;DHT22;30858;51.108;8.068;2022-08-03T08:23:01;27.90;99.90
45096;DHT22;30858;51.108;8.068;2022-08-03T08:25:28;28.30;99.90
45096;DHT22;30858;51.108;8.068;2022-08-03T08:27:54;28.60;99.90
45096;DHT22;30858;51.108;8.068;2022-08-03T08:30:21;28.80;99.90
45096;DHT22;30858;51.108;8.068;2022-08-03T08:32:47;28.90;99.90
45096;DHT22;30858;51.108;8.068;2022-08-03T08:35:14;29.10;97.70
45096;DHT22;30858;51.108;8.068;2022-08-03T08:37:40;29.30;98.30
45096;DHT22;30858;51.108;8.068;2022-08-03T08:40:06;29.30;96.10
45096;DHT22;30858;51.108;8.068;2022-08-03T08:42:33;29.70;97.20
45096;DHT22;30858;51.108;8.068;2022-08-03T08:45:02;29.70;95.00
45096;DHT22;30858;51.108;8.068;2022-08-03T08:47:31;29.80;94.80
45096;DHT22;30858;51.108;8.068;2022-08-03T08:49:58;30.00;94.40
45096;DHT22;30858;51.108;8.068;2022-08-03T08:52:26;30.20;92.80
45096;DHT22;30858;51.108;8.068;2022-08-03T08:54:57;30.40;92.50
45096;DHT22;30858;51.108;8.068;2022-08-03T08:57:27;30.60;93.60
45096;DHT22;30858;51.108;8.068;2022-08-03T08:59:54;30.60;91.60
45096;DHT22;30858;51.108;8.068;2022-08-03T09:02:24;30.00;92.10
45096;DHT22;30858;51.108;8.068;2022-08-03T09:04:50;30.20;92.10
45096;DHT22;30858;51.108;8.068;2022-08-03T09:07:17;30.50;92.20
45096;DHT22;30858;51.108;8.068;2022-08-03T09:09:43;30.50;91.60
45096;DHT22;30858;51.108;8.068;2022-08-03T09:12:09;30.20;90.90
45096;DHT22;30858;51.108;8.068;2022-08-03T09:14:34;30.50;91.40
45096;DHT22;30858;51.108;8.068;2022-08-03T09:17:01;30.60;90.70
45096;DHT22;30858;51.108;8.068;2022-08-03T09:19:29;30.50;90.30
45096;DHT22;30858;51.108;8.068;2022-08-03T09:22:15;30.30;91.10
45096;DHT22;30858;51.108;8.068;2022-08-03T09:25:07;30.30;91.30
45096;DHT22;30858;51.108;8.068;2022-08-03T09:27:43;30.40;90.80
45096;DHT22;30858;51.108;8.068;2022-08-03T09:30:17;30.50;90.50
45096;DHT22;30858;51.108;8.068;2022-08-03T09:32:43;30.50;90.70
45096;DHT22;30858;51.108;8.068;2022-08-03T09:35:10;31.10;90.40
45096;DHT22;30858;51.108;8.068;2022-08-03T09:37:36;31.10;89.30
45096;DHT22;30858;51.108;8.068;2022-08-03T09:40:03;31.10;89.00
45096;DHT22;30858;51.108;8.068;2022-08-03T09:42:29;31.40;89.40
45096;DHT22;30858;51.108;8.068;2022-08-03T09:44:55;31.80;89.10
45096;DHT22;30858;51.108;8.068;2022-08-03T09:47:30;32.00;86.30
45096;DHT22;30858;51.108;8.068;2022-08-03T09:50:08;32.20;88.20
45096;DHT22;30858;51.108;8.068;2022-08-03T09:52:38;31.60;86.70
45096;DHT22;30858;51.108;8.068;2022-08-03T09:55:09;31.90;88.50
45096;DHT22;30858;51.108;8.068;2022-08-03T09:57:35;31.80;85.70
45096;DHT22;30858;51.108;8.068;2022-08-03T10:00:14;32.00;86.30
45096;DHT22;30858;51.108;8.068;2022-08-03T10:02:41;32.00;86.40
45096;DHT22;30858;51.108;8.068;2022-08-03T10:05:09;32.00;85.80
45096;DHT22;30858;51.108;8.068;2022-08-03T10:07:43;32.30;84.30
45096;DHT22;30858;51.108;8.068;2022-08-03T10:10:09;32.60;83.30
45096;DHT22;30858;51.108;8.068;2022-08-03T10:12:36;32.70;85.80
45096;DHT22;30858;51.108;8.068;2022-08-03T10:15:02;32.90;82.60
45096;DHT22;30858;51.108;8.068;2022-08-03T10:17:28;32.80;82.00
45096;DHT22;30858;51.108;8.068;2022-08-03T10:19:53;32.60;81.80
45096;DHT22;30858;51.108;8.068;2022-08-03T10:22:21;32.70;80.60
45096;DHT22;30858;51.108;8.068;2022-08-03T10:25:06;33.10;79.60
45096;DHT22;30858;51.108;8.068;2022-08-03T10:27:36;33.30;80.10
45096;DHT22;30858;51.108;8.068;2022-08-03T10:30:04;33.40;78.30
45096;DHT22;30858;51.108;8.068;2022-08-03T10:32:40;33.10;77.30
45096;DHT22;30858;51.108;8.068;2022-08-03T10:35:15;33.00;77.70
45096;DHT22;30858;51.108;8.068;2022-08-03T10:38:00;33.00;78.50
45096;DHT22;30858;51.108;8.068;2022-08-03T10:40:28;33.00;77.50
45096;DHT22;30858;51.108;8.068;2022-08-03T10:42:58;33.00;76.30
45096;DHT22;30858;51.108;8.068;2022-08-03T10:45:26;33.00;75.80
45096;DHT22;30858;51.108;8.068;2022-08-03T10:47:52;33.10;75.70
45096;DHT22;30858;51.108;8.068;2022-08-03T10:50:20;33.00;77.90
45096;DHT22;30858;51.108;8.068;2022-08-03T10:52:53;33.10;77.70
45096;DHT22;30858;51.108;8.068;2022-08-03T11:01:01;34.10;76.70
45096;DHT22;30858;51.108;8.068;2022-08-03T11:03:27;34.50;73.60
45096;DHT22;30858;51.108;8.068;2022-08-03T11:05:52;34.00;72.40
45096;DHT22;30858;51.108;8.068;2022-08-03T11:08:38;33.50;73.10
45096;DHT22;30858;51.108;8.068;2022-08-03T11:14:02;33.80;71.70
45096;DHT22;30858;51.108;8.068;2022-08-03T11:16:31;33.60;72.40
45096;DHT22;30858;51.108;8.068;2022-08-03T11:19:01;34.20;72.40
45096;DHT22;30858;51.108;8.068;2022-08-03T11:27:32;35.10;70.00
45096;DHT22;30858;51.108;8.068;2022-08-03T11:46:17;34.70;67.50
45096;DHT22;30858;51.108;8.068;2022-08-03T11:48:47;33.80;70.00
45096;DHT22;30858;51.108;8.068;2022-08-03T11:51:28;34.10;71.60
45096;DHT22;30858;51.108;8.068;2022-08-03T11:53:58;34.50;70.10
45096;DHT22;30858;51.108;8.068;2022-08-03T11:56:27;34.70;69.30
45096;DHT22;30858;51.108;8.068;2022-08-03T11:58:55;35.00;69.10
45096;DHT22;30858;51.108;8.068;2022-08-03T12:01:22;34.20;69.30
45096;DHT22;30858;51.108;8.068;2022-08-03T12:03:49;33.60;68.90
45096;DHT22;30858;51.108;8.068;2022-08-03T12:06:16;33.90;69.10
45096;DHT22;30858;51.108;8.068;2022-08-03T12:08:43;34.20;68.30
45096;DHT22;30858;51.108;8.068;2022-08-03T12:11:11;33.90;69.90
45096;DHT22;30858;51.108;8.068;2022-08-03T12:13:45;34.40;68.70
45096;DHT22;30858;51.108;8.068;2022-08-03T12:16:19;34.60;68.00
45096;DHT22;30858;51.108;8.068;2022-08-03T12:18:57;35.20;68.50
45096;DHT22;30858;51.108;8.068;2022-08-03T12:21:22;35.40;69.10
45096;DHT22;30858;51.108;8.068;2022-08-03T12:23:49;36.10;69.10
45096;DHT22;30858;51.108;8.068;2022-08-03T12:26:15;36.70;66.10
45096;DHT22;30858;51.108;8.068;2022-08-03T12:28:49;36.20;64.10
45096;DHT22;30858;51.108;8.068;2022-08-03T12:31:15;36.20;64.40
45096;DHT22;30858;51.108;8.068;2022-08-03T12:33:59;35.90;63.70
45096;DHT22;30858;51.108;8.068;2022-08-03T12:36:28;35.60;64.60
45096;DHT22;30858;51.108;8.068;2022-08-03T12:38:59;36.40;65.50
45096;DHT22;30858;51.108;8.068;2022-08-03T12:41:34;37.10;63.10
45096;DHT22;30858;51.108;8.068;2022-08-03T12:44:05;37.30;62.10
45096;DHT22;30858;51.108;8.068;2022-08-03T12:46:36;37.40;62.30
45096;DHT22;30858;51.108;8.068;2022-08-03T12:49:05;37.70;61.40
45096;DHT22;30858;51.108;8.068;2022-08-03T12:54:15;37.80;61.40
45096;DHT22;30858;51.108;8.068;2022-08-03T12:56:57;37.70;61.20
45096;DHT22;30858;51.108;8.068;2022-08-03T12:59:25;37.50;62.80
45096;DHT22;30858;51.108;8.068;2022-08-03T13:01:51;36.80;62.80
45096;DHT22;30858;51.108;8.068;2022-08-03T13:04:31;36.50;62.00
45096;DHT22;30858;51.108;8.068;2022-08-03T13:09:23;35.60;61.50
45096;DHT22;30858;51.108;8.068;2022-08-03T13:12:10;35.90;61.80
45096;DHT22;30858;51.108;8.068;2022-08-03T13:14:36;36.70;59.70
45096;DHT22;30858;51.108;8.068;2022-08-03T13:17:03;36.80;59.80
45096;DHT22;30858;51.108;8.068;2022-08-03T13:19:31;36.00;62.10
45096;DHT22;30858;51.108;8.068;2022-08-03T13:21:56;36.20;60.40
45096;DHT22;30858;51.108;8.068;2022-08-03T13:24:22;36.80;59.90
45096;DHT22;30858;51.108;8.068;2022-08-03T13:26:47;36.90;59.90
45096;DHT22;30858;51.108;8.068;2022-08-03T13:29:13;36.80;59.70
45096;DHT22;30858;51.108;8.068;2022-08-03T13:31:38;36.60;58.90
45096;DHT22;30858;51.108;8.068;2022-08-03T13:34:04;37.20;58.70
45096;DHT22;30858;51.108;8.068;2022-08-03T13:36:29;37.40;57.60
45096;DHT22;30858;51.108;8.068;2022-08-03T13:38:55;37.50;57.90
45096;DHT22;30858;51.108;8.068;2022-08-03T13:41:20;36.70;59.30
45096;DHT22;30858;51.108;8.068;2022-08-03T13:43:46;37.20;57.70
45096;DHT22;30858;51.108;8.068;2022-08-03T13:46:12;37.20;59.30
45096;DHT22;30858;51.108;8.068;2022-08-03T13:48:37;36.60;59.60
45096;DHT22;30858;51.108;8.068;2022-08-03T13:51:03;35.60;61.10
45096;DHT22;30858;51.108;8.068;2022-08-03T13:53:28;36.30;60.80
45096;DHT22;30858;51.108;8.068;2022-08-03T13:55:54;37.00;59.00
45096;DHT22;30858;51.108;8.068;2022-08-03T13:58:19;37.20;58.70
45096;DHT22;30858;51.108;8.068;2022-08-03T14:00:45;37.20;59.00
45096;DHT22;30858;51.108;8.068;2022-08-03T14:03:10;36.80;58.50
45096;DHT22;30858;51.108;8.068;2022-08-03T14:05:36;36.80;58.80
45096;DHT22;30858;51.108;8.068;2022-08-03T14:08:03;36.10;58.10
45096;DHT22;30858;51.108;8.068;2022-08-03T14:10:35;35.10;59.70
45096;DHT22;30858;51.108;8.068;2022-08-03T14:13:02;34.20;61.30
45096;DHT22;30858;51.108;8.068;2022-08-03T14:15:28;33.70;62.40
45096;DHT22;30858;51.108;8.068;2022-08-03T14:17:53;34.20;63.30
45096;DHT22;30858;51.108;8.068;2022-08-03T14:20:19;34.90;63.10
45096;DHT22;30858;51.108;8.068;2022-08-03T14:22:44;35.50;60.60
45096;DHT22;30858;51.108;8.068;2022-08-03T14:25:10;35.90;59.80
45096;DHT22;30858;51.108;8.068;2022-08-03T14:27:35;36.60;59.70
45096;DHT22;30858;51.108;8.068;2022-08-03T14:30:01;36.80;61.00
45096;DHT22;30858;51.108;8.068;2022-08-03T14:32:27;36.90;58.60
45096;DHT22;30858;51.108;8.068;2022-08-03T14:34:52;36.10;60.20
45096;DHT22;30858;51.108;8.068;2022-08-03T14:37:18;37.20;59.50
45096;DHT22;30858;51.108;8.068;2022-08-03T14:39:43;38.00;59.60
45096;DHT22;30858;51.108;8.068;2022-08-03T14:42:11;38.50;57.60
45096;DHT22;30858;51.108;8.068;2022-08-03T14:44:36;39.10;56.80
45096;DHT22;30858;51.108;8.068;2022-08-03T14:47:02;38.30;56.70
45096;DHT22;30858;51.108;8.068;2022-08-03T14:49:27;37.40;58.10
45096;DHT22;30858;51.108;8.068;2022-08-03T14:51:53;38.50;57.50
45096;DHT22;30858;51.108;8.068;2022-08-03T14:54:18;38.30;57.40
45096;DHT22;30858;51.108;8.068;2022-08-03T14:56:44;38.00;58.20
45096;DHT22;30858;51.108;8.068;2022-08-03T14:59:09;37.50;57.80
45096;DHT22;30858;51.108;8.068;2022-08-03T15:01:35;37.60;58.00
45096;DHT22;30858;51.108;8.068;2022-08-03T15:04:00;37.00;57.80
45096;DHT22;30858;51.108;8.068;2022-08-03T15:06:26;36.30;58.20
45096;DHT22;30858;51.108;8.068;2022-08-03T15:08:51;35.70;58.50
45096;DHT22;30858;51.108;8.068;2022-08-03T15:11:17;35.30;58.70
45096;DHT22;30858;51.108;8.068;2022-08-03T15:13:42;35.10;59.80
45096;DHT22;30858;51.108;8.068;2022-08-03T15:16:08;35.00;59.70
45096;DHT22;30858;51.108;8.068;2022-08-03T15:18:34;34.50;60.70
45096;DHT22;30858;51.108;8.068;2022-08-03T15:20:59;34.70;62.50
45096;DHT22;30858;51.108;8.068;2022-08-03T15:23:26;34.80;60.00
45096;DHT22;30858;51.108;8.068;2022-08-03T15:25:52;34.50;61.10
45096;DHT22;30858;51.108;8.068;2022-08-03T15:28:17;33.60;60.80
45096;DHT22;30858;51.108;8.068;2022-08-03T15:30:43;33.90;61.40
45096;DHT22;30858;51.108;8.068;2022-08-03T15:33:08;34.80;60.90
45096;DHT22;30858;51.108;8.068;2022-08-03T15:35:34;35.70;59.60
45096;DHT22;30858;51.108;8.068;2022-08-03T15:37:59;36.70;58.20
45096;DHT22;30858;51.108;8.068;2022-08-03T15:40:25;37.20;58.60
45096;DHT22;30858;51.108;8.068;2022-08-03T15:42:50;37.40;58.80
45096;DHT22;30858;51.108;8.068;2022-08-03T15:45:16;38.00;56.10
45096;DHT22;30858;51.108;8.068;2022-08-03T15:47:42;38.00;55.80
45096;DHT22;30858;51.108;8.068;2022-08-03T15:50:07;37.60;55.70
45096;DHT22;30858;51.108;8.068;2022-08-03T15:52:33;37.40;55.70
45096;DHT22;30858;51.108;8.068;2022-08-03T15:54:58;37.80;56.00
45096;DHT22;30858;51.108;8.068;2022-08-03T15:57:24;38.00;56.30
45096;DHT22;30858;51.108;8.068;2022-08-03T15:59:49;38.00;55.70
45096;DHT22;30858;51.108;8.068;2022-08-03T16:02:16;37.90;56.20
45096;DHT22;30858;51.108;8.068;2022-08-03T16:04:41;38.20;55.60
45096;DHT22;30858;51.108;8.068;2022-08-03T16:07:07;37.90;57.60
45096;DHT22;30858;51.108;8.068;2022-08-03T16:09:33;37.80;56.50
45096;DHT22;30858;51.108;8.068;2022-08-03T16:11:58;36.60;57.10
45096;DHT22;30858;51.108;8.068;2022-08-03T16:14:24;37.00;57.10
45096;DHT22;30858;51.108;8.068;2022-08-03T16:16:49;36.20;57.80
45096;DHT22;30858;51.108;8.068;2022-08-03T16:19:15;36.60;57.50
45096;DHT22;30858;51.108;8.068;2022-08-03T16:21:41;36.80;57.20
45096;DHT22;30858;51.108;8.068;2022-08-03T16:24:06;36.90;56.40
45096;DHT22;30858;51.108;8.068;2022-08-03T16:26:32;36.90;56.80
45096;DHT22;30858;51.108;8.068;2022-08-03T16:28:57;36.90;56.50
45096;DHT22;30858;51.108;8.068;2022-08-03T16:31:23;37.00;57.10